createdAt,value
2022-11-15T00:01:33.352Z,32.42
2022-11-15T00:06:35.860Z,29.33
2022-11-15T00:11:38.238Z,30.80
2022-11-15T00:16:41.989Z,34.10
2022-11-15T00:21:44.369Z,35.03
2022-11-15T00:26:46.775Z,32.30
2022-11-15T00:31:50.522Z,32.88
2022-11-15T00:36:52.917Z,37.65
2022-11-15T00:41:55.520Z,41.33
2022-11-15T00:46:59.303Z,41.50
2022-11-15T00:52:01.702Z,42.60
2022-11-15T00:57:04.130Z,48.70
2022-11-15T01:02:07.891Z,48.75
2022-11-15T01:07:10.357Z,54.75
2022-11-15T01:12:12.823Z,50.22
2022-11-15T01:17:16.566Z,52.10
2022-11-15T01:22:19.048Z,52.83
2022-11-15T01:27:21.535Z,54.00
2022-11-15T01:32:25.358Z,56.92
2022-11-15T01:37:27.748Z,49.35
2022-11-15T01:42:30.126Z,52.00
2022-11-15T01:47:37.147Z,50.28
2022-11-15T01:52:40.259Z,52.92
2022-11-15T01:57:43.819Z,48.20
2022-11-15T02:07:50.113Z,54.95
2022-11-15T02:12:52.984Z,61.58
2022-11-15T02:18:05.842Z,57.70
2022-11-15T02:23:24.350Z,60.05
2022-11-15T02:28:44.707Z,65.22
2022-11-15T02:33:54.251Z,52.28
2022-11-15T02:39:00.474Z,53.40
2022-11-15T02:44:04.512Z,59.42
2022-11-15T02:49:08.400Z,58.90
2022-11-15T02:54:13.607Z,59.83
2022-11-15T02:59:21.460Z,52.00
2022-11-15T03:04:30.780Z,49.65
2022-11-15T03:09:36.210Z,55.03
2022-11-15T03:14:39.967Z,56.28
2022-11-15T03:19:46.193Z,48.55
2022-11-15T03:24:50.024Z,51.75
2022-11-15T03:29:53.961Z,42.75
2022-11-15T03:35:00.101Z,44.25
2022-11-15T03:40:02.927Z,42.75
2022-11-15T03:45:07.756Z,40.92
2022-11-15T03:50:13.861Z,36.50
2022-11-15T03:55:19.400Z,34.63
2022-11-15T04:00:21.904Z,32.75
2022-11-15T04:05:25.708Z,30.40
2022-11-15T04:10:28.166Z,31.35
2022-11-15T04:15:31.018Z,31.55
2022-11-15T04:20:52.080Z,28.98
2022-11-15T04:25:55.506Z,30.38
2022-11-15T04:36:19.127Z,31.98
2022-11-15T04:41:21.524Z,26.15
2022-11-15T04:46:24.580Z,26.83
2022-11-15T04:51:28.404Z,27.77
2022-11-15T04:56:30.767Z,30.20
2022-11-15T05:01:33.267Z,26.88
2022-11-15T05:06:37.020Z,29.20
2022-11-15T05:11:39.414Z,28.25
2022-11-15T05:16:42.118Z,27.73
2022-11-15T05:21:45.882Z,25.93
2022-11-15T05:26:48.403Z,25.52
2022-11-15T05:31:50.879Z,27.13
2022-11-15T05:36:54.637Z,29.10
2022-11-15T05:41:59.280Z,25.02
2022-11-15T05:47:02.195Z,24.48
2022-11-15T05:52:06.983Z,28.48
2022-11-15T05:57:09.525Z,24.58
2022-11-15T06:02:12.504Z,25.20
2022-11-15T06:07:16.442Z,24.40
2022-11-15T06:12:18.881Z,22.73
2022-11-15T06:17:21.263Z,25.33
2022-11-15T06:22:24.978Z,27.17
2022-11-15T06:27:27.454Z,27.67
2022-11-15T06:32:30.934Z,29.23
2022-11-15T06:42:36.910Z,29.08
2022-11-15T06:47:45.787Z,31.45
2022-11-15T06:52:48.165Z,32.30
2022-11-15T06:57:52.759Z,33.08
2022-11-15T07:02:55.180Z,32.10
2022-11-15T07:07:58.549Z,29.38
2022-11-15T07:13:02.306Z,31.15
2022-11-15T07:18:05.079Z,30.70
2022-11-15T07:23:08.043Z,29.23
2022-11-15T07:28:12.195Z,29.13
2022-11-15T07:33:18.523Z,30.08
2022-11-15T07:38:21.653Z,35.20
2022-11-15T07:43:25.434Z,31.75
2022-11-15T07:48:42.236Z,31.88
2022-11-15T07:53:46.449Z,28.50
2022-11-15T07:58:51.190Z,29.63
2022-11-15T08:03:53.595Z,28.80
2022-11-15T08:08:55.991Z,33.75
2022-11-15T08:14:00.364Z,31.50
2022-11-15T08:19:02.809Z,35.92
2022-11-15T08:24:05.441Z,41.80
2022-11-15T08:29:09.614Z,39.37
2022-11-15T08:34:12.097Z,40.08
2022-11-15T08:39:14.628Z,36.60
2022-11-15T08:44:18.402Z,39.63
2022-11-15T08:49:20.798Z,39.33
2022-11-15T08:54:23.207Z,36.35
2022-11-15T08:59:26.933Z,34.72
2022-11-15T09:04:29.404Z,36.05
2022-11-15T09:09:31.807Z,28.67
2022-11-15T09:14:35.784Z,27.58
2022-11-15T09:19:38.517Z,24.33
2022-11-15T09:24:41.020Z,21.48
2022-11-15T09:29:44.756Z,16.67
2022-11-15T09:34:47.187Z,13.52
2022-11-15T09:39:49.608Z,10.60
2022-11-15T09:44:59.871Z,9.57
2022-11-15T09:50:03.631Z,13.10
2022-11-15T09:55:07.009Z,9.00
2022-11-15T10:05:33.941Z,11.95
2022-11-15T10:10:38.642Z,8.38
2022-11-15T10:15:41.108Z,6.13
2022-11-15T10:20:48.148Z,7.17
2022-11-15T10:25:52.733Z,5.60
2022-11-15T10:30:55.960Z,5.30
2022-11-15T10:41:08.565Z,6.68
2022-11-15T10:46:45.099Z,5.97
2022-11-15T10:51:44.600Z,4.10
2022-11-15T10:56:52.258Z,5.97
2022-11-15T11:01:54.716Z,6.45
2022-11-15T11:06:58.135Z,4.97
2022-11-15T11:12:02.320Z,2.60
2022-11-15T11:17:07.077Z,3.38
2022-11-15T11:22:13.590Z,2.75
2022-11-15T11:27:24.401Z,2.28
2022-11-15T11:32:34.824Z,2.00
2022-11-15T11:37:41.797Z,2.40
2022-11-15T11:42:49.953Z,4.22
2022-11-15T11:47:53.817Z,2.45
2022-11-15T11:53:03.665Z,1.73
2022-11-15T11:58:14.665Z,1.85
2022-11-15T12:03:21.317Z,4.25
2022-11-15T12:08:27.596Z,9.60
2022-11-15T12:13:34.938Z,3.20
2022-11-15T12:18:37.498Z,1.65
2022-11-15T12:23:42.453Z,1.85
2022-11-15T12:29:06.265Z,0.77
2022-11-15T12:34:17.422Z,4.72
2022-11-15T12:39:20.543Z,2.38
2022-11-15T12:49:43.653Z,2.67
2022-11-15T12:54:55.256Z,2.15
2022-11-15T12:59:59.572Z,2.42
2022-11-15T13:05:16.955Z,2.13
2022-11-15T13:10:32.170Z,2.95
2022-11-15T13:15:57.065Z,3.40
2022-11-15T13:21:02.760Z,1.80
2022-11-15T13:26:14.107Z,2.60
2022-11-15T13:31:21.652Z,2.97
2022-11-15T13:36:25.090Z,4.45
2022-11-15T13:41:29.594Z,4.38
2022-11-15T13:46:33.567Z,3.40
2022-11-15T13:51:39.100Z,7.10
2022-11-15T13:56:44.251Z,4.32
2022-11-15T14:01:46.816Z,6.57
2022-11-15T14:06:51.014Z,3.83
2022-11-15T14:11:56.308Z,3.42
2022-11-15T14:17:00.314Z,4.30
2022-11-15T14:22:13.374Z,2.58
2022-11-15T14:27:22.831Z,4.80
2022-11-15T14:32:26.000Z,6.85
2022-11-15T14:37:29.669Z,6.80
2022-11-15T14:42:33.815Z,8.60
2022-11-15T14:47:36.302Z,12.73
2022-11-15T14:52:38.703Z,3.37
2022-11-15T14:57:42.485Z,4.50
2022-11-15T15:02:45.936Z,3.63
2022-11-15T15:07:48.967Z,1.90
2022-11-15T15:12:52.973Z,2.03
2022-11-15T15:17:55.369Z,3.50
2022-11-15T15:22:57.785Z,4.25
2022-11-15T15:28:02.937Z,3.90
2022-11-15T15:33:05.364Z,3.40
2022-11-15T15:38:07.736Z,4.95
2022-11-15T15:48:15.703Z,3.53
2022-11-15T15:53:21.592Z,8.50
2022-11-15T15:58:24.002Z,3.10
2022-11-15T16:03:28.463Z,2.33
2022-11-15T16:08:42.596Z,3.00
2022-11-15T16:13:50.435Z,2.10
2022-11-15T16:18:54.677Z,5.23
2022-11-15T16:23:57.176Z,11.32
2022-11-15T16:28:59.751Z,3.43
2022-11-15T16:34:03.625Z,2.10
2022-11-15T16:39:06.258Z,5.00
2022-11-15T16:44:08.697Z,5.03
2022-11-15T16:49:14.680Z,3.53
2022-11-15T16:54:17.358Z,6.43
2022-11-15T16:59:20.896Z,2.43
2022-11-15T17:04:24.666Z,3.03
2022-11-15T17:09:27.068Z,2.58
2022-11-15T17:14:29.498Z,3.60
2022-11-15T17:19:33.273Z,4.07
2022-11-15T17:24:35.705Z,2.63
2022-11-15T17:29:38.147Z,4.05
2022-11-15T17:34:41.897Z,3.55
2022-11-15T17:39:44.307Z,3.13
2022-11-15T17:44:46.729Z,2.40
2022-11-15T17:49:50.757Z,3.05
2022-11-15T17:54:53.146Z,4.18
2022-11-15T17:59:55.600Z,2.45
2022-11-15T18:04:59.347Z,5.03
2022-11-15T18:10:01.895Z,4.63
2022-11-15T18:15:04.451Z,5.53
2022-11-15T18:20:10.098Z,4.27
2022-11-15T18:25:15.809Z,2.90
2022-11-15T18:30:18.403Z,4.55
2022-11-15T18:35:22.150Z,4.00
2022-11-15T18:40:24.617Z,3.42
2022-11-15T18:45:27.408Z,9.67
2022-11-15T18:50:31.217Z,8.15
2022-11-15T18:55:33.565Z,10.60
2022-11-15T19:00:36.153Z,13.45
2022-11-15T19:05:40.010Z,8.40
2022-11-15T19:10:42.404Z,3.25
2022-11-15T19:15:44.761Z,4.77
2022-11-15T19:20:49.901Z,5.00
2022-11-15T19:25:54.777Z,5.85
2022-11-15T19:31:03.824Z,4.05
2022-11-15T19:36:08.669Z,4.35
2022-11-15T19:41:11.987Z,5.63
2022-11-15T19:51:19.657Z,4.45
2022-11-15T19:56:22.354Z,5.55
2022-11-15T20:01:25.312Z,3.95
2022-11-15T20:06:30.586Z,3.95
2022-11-15T20:11:34.077Z,3.78
2022-11-15T20:16:36.536Z,3.60
2022-11-15T20:21:40.311Z,7.87
2022-11-15T20:26:43.680Z,4.68
2022-11-15T20:36:49.854Z,5.72
2022-11-15T20:41:52.203Z,6.80
2022-11-15T20:46:54.705Z,5.63
2022-11-15T20:51:58.452Z,5.00
2022-11-15T20:57:00.834Z,7.15
2022-11-15T21:02:03.644Z,5.85
2022-11-15T21:07:07.568Z,5.30
2022-11-15T21:12:12.420Z,5.78
2022-11-15T21:17:14.805Z,7.57
2022-11-15T21:22:18.767Z,6.60
2022-11-15T21:27:21.327Z,6.00
2022-11-15T21:32:23.749Z,7.53
2022-11-15T21:37:27.519Z,8.07
2022-11-15T21:42:29.896Z,9.05
2022-11-15T21:47:32.296Z,9.07
2022-11-15T21:52:35.978Z,6.50
2022-11-15T21:57:38.337Z,9.32
2022-11-15T22:02:40.748Z,7.78
2022-11-15T22:07:44.785Z,7.60
2022-11-15T22:12:47.362Z,9.05
2022-11-15T22:18:01.686Z,9.90
2022-11-15T22:23:05.697Z,10.18
2022-11-15T22:28:08.088Z,9.23
2022-11-15T22:33:10.530Z,11.43
2022-11-15T22:38:14.606Z,10.87
2022-11-15T22:43:18.260Z,12.45
2022-11-15T22:48:21.025Z,9.10
2022-11-15T22:53:25.031Z,11.35
2022-11-15T22:58:28.522Z,12.90
2022-11-15T23:03:31.075Z,12.02
2022-11-15T23:08:35.352Z,11.70
2022-11-15T23:13:37.834Z,11.13
2022-11-15T23:18:42.187Z,11.40
2022-11-15T23:23:45.964Z,10.70
2022-11-15T23:28:48.477Z,10.80
2022-11-15T23:34:00.877Z,10.00
2022-11-15T23:39:05.116Z,9.65
2022-11-15T23:44:07.473Z,11.25
2022-11-15T23:49:09.877Z,11.10
2022-11-15T23:54:13.648Z,11.77
2022-11-15T23:59:16.090Z,11.43
